Juno — MZUM3 — position and weather

sailwx.info

Track history (hours):
 
Tides and Currents Weather Stations Pressure Air Temp Water Temp Dewpoint Dewpoint Depression Visibility Wind Speed Wind Dir Waves Ship Positions

Juno

Last reported at 2018-Feb-17 19:44 UTC. Time now 2018-Feb-18 20:33 UTC.
Position N 17°00' W 061°46'.

Type: Pleasure craft. MMSI: 232005260.

Date/timePositionNaut miles runAvg speedWind from/ knotsBaromVisibWave heightAir tempDewpointWater temp
2018-Feb-17 19:44N 17°00' W 061°46'0 0.0
2018-Feb-17 19:29N 17°00' W 061°46'0 0.0
2018-Feb-17 18:59N 17°00' W 061°46'0 0.0
2018-Feb-17 18:25N 17°00' W 061°46'0 0.4
2018-Feb-17 18:00N 17°00' W 061°46'2 3.5
2018-Feb-17 17:31N 16°59' W 061°47'3 5.5
2018-Feb-17 17:00N 16°59' W 061°50'3 5.8
2018-Feb-17 16:30N 16°58' W 061°47'4 7.9
2018-Feb-17 15:59N 16°59' W 061°43'1 2.5
2018-Feb-17 15:30N 16°60' W 061°42'2 4.5
2018-Feb-17 15:00N 16°58' W 061°44'3 5.0
2018-Feb-17 14:30N 17°00' W 061°46'0 0.2
2018-Feb-17 13:59N 17°00' W 061°46'0 0.0
2018-Feb-17 13:29N 17°00' W 061°46'0 0.0
2018-Feb-17 12:59N 17°00' W 061°46'0 0.0
2018-Feb-16 21:39N 17°00' W 061°46'0 0.0
2018-Feb-16 21:30N 17°00' W 061°46'0 0.0
2018-Feb-16 21:00N 17°00' W 061°46'0 0.0
2018-Feb-16 20:30N 17°00' W 061°46'0 0.0
2018-Feb-16 19:58N 17°00' W 061°46'0 0.0
2018-Feb-16 18:53N 17°00' W 061°46'0 1.3
2018-Feb-16 18:31N 16°60' W 061°46'2 3.2
2018-Feb-16 18:00N 16°59' W 061°45'1 1.3
2018-Feb-16 17:30N 16°59' W 061°44'2 3.8
2018-Feb-16 17:00N 16°59' W 061°42'1 1.4
2018-Feb-16 16:30N 16°60' W 061°42'1 1.7
2018-Feb-16 16:00N 16°60' W 061°41'2 4.7
2018-Feb-16 15:30N 16°59' W 061°43'3 5.5
2018-Feb-16 15:00N 16°60' W 061°46'1 1.7
2018-Feb-16 14:28N 17°00' W 061°46'0 0.0
2018-Feb-16 13:58N 17°00' W 061°46'0 0.0
2018-Feb-15 19:52N 17°00' W 061°46'0 0.0
2018-Feb-15 19:28N 17°00' W 061°46'0 0.0
2018-Feb-15 18:58N 17°00' W 061°46'0 0.0
2018-Feb-15 18:28N 17°00' W 061°46'1 1.7
2018-Feb-15 18:00N 16°60' W 061°46'1 2.7
2018-Feb-15 17:30N 16°59' W 061°44'3 5.4
2018-Feb-15 17:00N 16°59' W 061°42'4 8.1
2018-Feb-15 16:30N 17°03' W 061°40'4 8.0
2018-Feb-15 16:00N 16°59' W 061°41'3 5.0
2018-Feb-15 15:30N 16°59' W 061°44'2 4.0
2018-Feb-15 15:00N 17°00' W 061°46'0 0.4
2018-Feb-15 14:29N 17°00' W 061°46'0 0.0
2018-Feb-15 13:59N 17°00' W 061°46'0 0.0
2018-Feb-15 13:29N 17°00' W 061°46'0 0.0
2018-Feb-15 12:59N 17°00' W 061°46'0 0.0
2018-Feb-15 03:23N 17°00' W 061°46'0 0.0
2018-Feb-15 02:59N 17°00' W 061°46'0 0.0
2018-Feb-15 02:30N 17°00' W 061°46'0 0.0
2018-Feb-15 02:00N 17°00' W 061°46'0 0.0
2018-Feb-15 01:29N 17°00' W 061°46'0 0.0
2018-Feb-15 01:00N 17°00' W 061°46'0 0.0
2018-Feb-15 00:30N 17°00' W 061°46'0 0.0
2018-Feb-14 23:59N 17°00' W 061°46'0 0.0
2018-Feb-14 23:30N 17°00' W 061°46'0 0.0
2018-Feb-14 23:00N 17°00' W 061°46'0 0.0
2018-Feb-14 22:30N 17°00' W 061°46'0 0.0
2018-Feb-14 22:00N 17°00' W 061°46'0 0.0
2018-Feb-14 21:30N 17°00' W 061°46'0 0.0
2018-Feb-14 21:00N 17°00' W 061°46'0 0.0
2018-Feb-14 20:30N 17°00' W 061°46'0 0.0
2018-Feb-14 20:00N 17°00' W 061°46'0 0.0
2018-Feb-14 19:29N 17°00' W 061°46'0 0.4
2018-Feb-14 19:00N 17°00' W 061°46'3 5.2
2018-Feb-14 18:29N 16°59' W 061°43'2 4.2
2018-Feb-14 18:00N 16°57' W 061°43'3 6.4
2018-Feb-14 17:30N 16°59' W 061°46'1 2.0
2018-Feb-14 16:58N 17°00' W 061°46'0 0.0
2018-Feb-14 16:28N 17°00' W 061°46'0 0.0
2018-Feb-14 12:47N 17°00' W 061°46'0 0.0
2018-Feb-14 12:30N 17°00' W 061°46'0 0.0
2018-Feb-14 12:00N 17°00' W 061°46'0 0.0
2018-Feb-14 11:30N 17°00' W 061°46'0 0.0
2018-Feb-14 11:00N 17°00' W 061°46'0 0.0
2018-Feb-14 10:30N 17°00' W 061°46'0 0.0
2018-Feb-14 10:00N 17°00' W 061°46'0 0.0
2018-Feb-14 09:30N 17°00' W 061°46'0 0.0
2018-Feb-14 09:00N 17°00' W 061°46'0 0.0
2018-Feb-14 08:30N 17°00' W 061°46'0 0.0
2018-Feb-14 08:00N 17°00' W 061°46'0 0.0
2018-Feb-14 07:30N 17°00' W 061°46'0 0.0
2018-Feb-14 07:00N 17°00' W 061°46'0 0.0
2018-Feb-14 06:30N 17°00' W 061°46'0 0.0
2018-Feb-14 06:00N 17°00' W 061°46'0 0.0
2018-Feb-14 05:30N 17°00' W 061°46'0 0.0
2018-Feb-14 05:00N 17°00' W 061°46'0 0.0
2018-Feb-14 04:30N 17°00' W 061°46'0 0.0
2018-Feb-14 04:00N 17°00' W 061°46'0 0.0
2018-Feb-14 03:30N 17°00' W 061°46'0 0.0
2018-Feb-14 03:00N 17°00' W 061°46'0 0.0
2018-Feb-14 02:30N 17°00' W 061°46'0 0.0
2018-Feb-14 02:00N 17°00' W 061°46'0 0.0
2018-Feb-14 01:30N 17°00' W 061°46'0 0.0
2018-Feb-14 01:00N 17°00' W 061°46'0 0.0
2018-Feb-14 00:30N 17°00' W 061°46'0 0.0
2018-Feb-14 00:00N 17°00' W 061°46'0 0.0
2018-Feb-13 23:30N 17°00' W 061°46'0 0.0
2018-Feb-13 23:00N 17°00' W 061°46'0 0.0
2018-Feb-13 22:30N 17°00' W 061°46'0 0.0
2018-Feb-13 22:00N 17°00' W 061°46'0 0.0
2018-Feb-13 21:30N 17°00' W 061°46'0 0.0
2018-Feb-13 21:00N 17°00' W 061°46'0 0.0
2018-Feb-13 20:30N 17°00' W 061°46'0 0.0
2018-Feb-13 20:00N 17°00' W 061°46'0 0.0
2018-Feb-13 19:30N 17°00' W 061°46'1 1.6
2018-Feb-13 19:00N 17°00' W 061°47'1 1.4
2018-Feb-13 18:28N 17°01' W 061°46'0 0.0
2018-Feb-13 17:58N 17°01' W 061°46'0 0.0
2018-Feb-13 17:28N 17°01' W 061°46'0 0.0
2018-Feb-13 16:58N 17°01' W 061°46'0 0.0
2018-Feb-13 16:28N 17°01' W 061°46'0 0.5
2018-Feb-13 15:59N 17°01' W 061°46'  
Track history (hours):
 
Tides and Currents Weather Stations Pressure Air Temp Water Temp Dewpoint Dewpoint Depression Visibility Wind Speed Wind Dir Waves Ship Positions

Juno

Last reported at 2018-Feb-17 19:44 UTC. Time now 2018-Feb-18 20:33 UTC.
Position N 17°00' W 061°46'.

Type: Pleasure craft. MMSI: 232005260.

Date/timePositionNaut miles runAvg speedWind from/ knotsBaromVisibWave heightAir tempDewpointWater temp
2018-Feb-17 19:44N 17°00' W 061°46'0 0.0
2018-Feb-17 19:29N 17°00' W 061°46'0 0.0
2018-Feb-17 18:59N 17°00' W 061°46'0 0.0
2018-Feb-17 18:25N 17°00' W 061°46'0 0.4
2018-Feb-17 18:00N 17°00' W 061°46'2 3.5
2018-Feb-17 17:31N 16°59' W 061°47'3 5.5
2018-Feb-17 17:00N 16°59' W 061°50'3 5.8
2018-Feb-17 16:30N 16°58' W 061°47'4 7.9
2018-Feb-17 15:59N 16°59' W 061°43'1 2.5
2018-Feb-17 15:30N 16°60' W 061°42'2 4.5
2018-Feb-17 15:00N 16°58' W 061°44'3 5.0
2018-Feb-17 14:30N 17°00' W 061°46'0 0.2
2018-Feb-17 13:59N 17°00' W 061°46'0 0.0
2018-Feb-17 13:29N 17°00' W 061°46'0 0.0
2018-Feb-17 12:59N 17°00' W 061°46'0 0.0
2018-Feb-16 21:39N 17°00' W 061°46'0 0.0
2018-Feb-16 21:30N 17°00' W 061°46'0 0.0
2018-Feb-16 21:00N 17°00' W 061°46'0 0.0
2018-Feb-16 20:30N 17°00' W 061°46'0 0.0
2018-Feb-16 19:58N 17°00' W 061°46'0 0.0
2018-Feb-16 18:53N 17°00' W 061°46'0 1.3
2018-Feb-16 18:31N 16°60' W 061°46'2 3.2
2018-Feb-16 18:00N 16°59' W 061°45'1 1.3
2018-Feb-16 17:30N 16°59' W 061°44'2 3.8
2018-Feb-16 17:00N 16°59' W 061°42'1 1.4
2018-Feb-16 16:30N 16°60' W 061°42'1 1.7
2018-Feb-16 16:00N 16°60' W 061°41'2 4.7
2018-Feb-16 15:30N 16°59' W 061°43'3 5.5
2018-Feb-16 15:00N 16°60' W 061°46'1 1.7
2018-Feb-16 14:28N 17°00' W 061°46'0 0.0
2018-Feb-16 13:58N 17°00' W 061°46'0 0.0
2018-Feb-15 19:52N 17°00' W 061°46'0 0.0
2018-Feb-15 19:28N 17°00' W 061°46'0 0.0
2018-Feb-15 18:58N 17°00' W 061°46'0 0.0
2018-Feb-15 18:28N 17°00' W 061°46'1 1.7
2018-Feb-15 18:00N 16°60' W 061°46'1 2.7
2018-Feb-15 17:30N 16°59' W 061°44'3 5.4
2018-Feb-15 17:00N 16°59' W 061°42'4 8.1
2018-Feb-15 16:30N 17°03' W 061°40'4 8.0
2018-Feb-15 16:00N 16°59' W 061°41'3 5.0
2018-Feb-15 15:30N 16°59' W 061°44'2 4.0
2018-Feb-15 15:00N 17°00' W 061°46'0 0.4
2018-Feb-15 14:29N 17°00' W 061°46'0 0.0
2018-Feb-15 13:59N 17°00' W 061°46'0 0.0
2018-Feb-15 13:29N 17°00' W 061°46'0 0.0
2018-Feb-15 12:59N 17°00' W 061°46'0 0.0
2018-Feb-15 03:23N 17°00' W 061°46'0 0.0
2018-Feb-15 02:59N 17°00' W 061°46'0 0.0
2018-Feb-15 02:30N 17°00' W 061°46'0 0.0
2018-Feb-15 02:00N 17°00' W 061°46'0 0.0
2018-Feb-15 01:29N 17°00' W 061°46'0 0.0
2018-Feb-15 01:00N 17°00' W 061°46'0 0.0
2018-Feb-15 00:30N 17°00' W 061°46'0 0.0
2018-Feb-14 23:59N 17°00' W 061°46'0 0.0
2018-Feb-14 23:30N 17°00' W 061°46'0 0.0
2018-Feb-14 23:00N 17°00' W 061°46'0 0.0
2018-Feb-14 22:30N 17°00' W 061°46'0 0.0
2018-Feb-14 22:00N 17°00' W 061°46'0 0.0
2018-Feb-14 21:30N 17°00' W 061°46'0 0.0
2018-Feb-14 21:00N 17°00' W 061°46'0 0.0
2018-Feb-14 20:30N 17°00' W 061°46'0 0.0
2018-Feb-14 20:00N 17°00' W 061°46'0 0.0
2018-Feb-14 19:29N 17°00' W 061°46'0 0.4
2018-Feb-14 19:00N 17°00' W 061°46'3 5.2
2018-Feb-14 18:29N 16°59' W 061°43'2 4.2
2018-Feb-14 18:00N 16°57' W 061°43'3 6.4
2018-Feb-14 17:30N 16°59' W 061°46'1 2.0
2018-Feb-14 16:58N 17°00' W 061°46'0 0.0
2018-Feb-14 16:28N 17°00' W 061°46'0 0.0
2018-Feb-14 12:47N 17°00' W 061°46'0 0.0
2018-Feb-14 12:30N 17°00' W 061°46'0 0.0
2018-Feb-14 12:00N 17°00' W 061°46'0 0.0
2018-Feb-14 11:30N 17°00' W 061°46'0 0.0
2018-Feb-14 11:00N 17°00' W 061°46'0 0.0
2018-Feb-14 10:30N 17°00' W 061°46'0 0.0
2018-Feb-14 10:00N 17°00' W 061°46'0 0.0
2018-Feb-14 09:30N 17°00' W 061°46'0 0.0
2018-Feb-14 09:00N 17°00' W 061°46'0 0.0
2018-Feb-14 08:30N 17°00' W 061°46'0 0.0
2018-Feb-14 08:00N 17°00' W 061°46'0 0.0
2018-Feb-14 07:30N 17°00' W 061°46'0 0.0
2018-Feb-14 07:00N 17°00' W 061°46'0 0.0
2018-Feb-14 06:30N 17°00' W 061°46'0 0.0
2018-Feb-14 06:00N 17°00' W 061°46'0 0.0
2018-Feb-14 05:30N 17°00' W 061°46'0 0.0
2018-Feb-14 05:00N 17°00' W 061°46'0 0.0
2018-Feb-14 04:30N 17°00' W 061°46'0 0.0
2018-Feb-14 04:00N 17°00' W 061°46'0 0.0
2018-Feb-14 03:30N 17°00' W 061°46'0 0.0
2018-Feb-14 03:00N 17°00' W 061°46'0 0.0
2018-Feb-14 02:30N 17°00' W 061°46'0 0.0
2018-Feb-14 02:00N 17°00' W 061°46'0 0.0
2018-Feb-14 01:30N 17°00' W 061°46'0 0.0
2018-Feb-14 01:00N 17°00' W 061°46'0 0.0
2018-Feb-14 00:30N 17°00' W 061°46'0 0.0
2018-Feb-14 00:00N 17°00' W 061°46'0 0.0
2018-Feb-13 23:30N 17°00' W 061°46'0 0.0
2018-Feb-13 23:00N 17°00' W 061°46'0 0.0
2018-Feb-13 22:30N 17°00' W 061°46'0 0.0
2018-Feb-13 22:00N 17°00' W 061°46'0 0.0
2018-Feb-13 21:30N 17°00' W 061°46'0 0.0
2018-Feb-13 21:00N 17°00' W 061°46'0 0.0
2018-Feb-13 20:30N 17°00' W 061°46'0 0.0
2018-Feb-13 20:00N 17°00' W 061°46'0 0.0
2018-Feb-13 19:30N 17°00' W 061°46'1 1.6
2018-Feb-13 19:00N 17°00' W 061°47'1 1.4
2018-Feb-13 18:28N 17°01' W 061°46'0 0.0
2018-Feb-13 17:58N 17°01' W 061°46'0 0.0
2018-Feb-13 17:28N 17°01' W 061°46'0 0.0
2018-Feb-13 16:58N 17°01' W 061°46'0 0.0
2018-Feb-13 16:28N 17°01' W 061°46'0 0.5
2018-Feb-13 15:59N 17°01' W 061°46'  

Dump ship's entire track history